Pratts, Virginia
Current Conditions -  °F | °C
As of 10:55 AM on Thursday 27 Nov 2014 (Local Time) from KOMH Reporting Station
Overcast Overcast  
Wind Chill: 38°   Ceiling: 500
Heat Index: 41°   Visibility: 10mi
Dew Point: 39°   Wind: 5mph
Humidity: 93%   Direction: 10°N
Pressure: 30.06"   Gusts: NA
Location:  38.35°N, 78.27°W
Report Text: KOMH 271555Z AUTO 01004KT 10SM OVC005 05/04 A3006 RMK AO2
Loading
Personal Weather Stations






























Interactive Weather Map New forecast layout! Learn more

10-Day Weather Forecast

Advertisements
Track Severe Weather on mobile